sensor_id;sensor_type;location;lat;lon;timestamp;P1;durP1;ratioP1;P2;durP2;ratioP2
43457;SDS011;29046;54.184;18.680;2023-04-16T00:01:21;10.55;;;7.43;;
43457;SDS011;29046;54.184;18.680;2023-04-16T00:03:49;11.50;;;7.85;;
43457;SDS011;29046;54.184;18.680;2023-04-16T00:06:17;9.45;;;7.10;;
43457;SDS011;29046;54.184;18.680;2023-04-16T00:08:45;10.98;;;7.85;;
43457;SDS011;29046;54.184;18.680;2023-04-16T00:11:12;10.05;;;7.45;;
43457;SDS011;29046;54.184;18.680;2023-04-16T00:13:39;12.90;;;8.15;;
43457;SDS011;29046;54.184;18.680;2023-04-16T00:16:07;11.25;;;7.75;;
43457;SDS011;29046;54.184;18.680;2023-04-16T00:18:34;12.75;;;8.00;;
43457;SDS011;29046;54.184;18.680;2023-04-16T00:21:02;11.00;;;7.00;;
43457;SDS011;29046;54.184;18.680;2023-04-16T00:23:29;10.57;;;7.25;;
43457;SDS011;29046;54.184;18.680;2023-04-16T00:25:57;9.90;;;7.15;;
43457;SDS011;29046;54.184;18.680;2023-04-16T00:28:25;11.63;;;6.57;;
43457;SDS011;29046;54.184;18.680;2023-04-16T00:30:53;9.73;;;7.05;;
43457;SDS011;29046;54.184;18.680;2023-04-16T00:33:21;9.88;;;7.20;;
43457;SDS011;29046;54.184;18.680;2023-04-16T00:35:49;10.80;;;6.90;;
43457;SDS011;29046;54.184;18.680;2023-04-16T00:38:17;10.75;;;7.22;;
43457;SDS011;29046;54.184;18.680;2023-04-16T00:40:44;9.70;;;7.15;;
43457;SDS011;29046;54.184;18.680;2023-04-16T00:43:19;10.65;;;7.47;;
43457;SDS011;29046;54.184;18.680;2023-04-16T00:45:46;9.82;;;7.55;;
43457;SDS011;29046;54.184;18.680;2023-04-16T00:48:14;10.75;;;7.95;;
43457;SDS011;29046;54.184;18.680;2023-04-16T00:50:42;10.45;;;7.80;;
43457;SDS011;29046;54.184;18.680;2023-04-16T00:53:09;10.70;;;7.45;;
43457;SDS011;29046;54.184;18.680;2023-04-16T00:55:37;9.68;;;7.25;;
43457;SDS011;29046;54.184;18.680;2023-04-16T00:58:06;12.93;;;7.80;;
43457;SDS011;29046;54.184;18.680;2023-04-16T01:00:34;13.48;;;6.85;;
43457;SDS011;29046;54.184;18.680;2023-04-16T01:03:01;11.35;;;7.15;;
43457;SDS011;29046;54.184;18.680;2023-04-16T01:05:29;8.90;;;6.95;;
43457;SDS011;29046;54.184;18.680;2023-04-16T01:07:58;9.52;;;6.72;;
43457;SDS011;29046;54.184;18.680;2023-04-16T01:10:28;9.00;;;6.68;;
43457;SDS011;29046;54.184;18.680;2023-04-16T01:12:56;10.32;;;6.50;;
43457;SDS011;29046;54.184;18.680;2023-04-16T01:15:23;9.65;;;7.10;;
43457;SDS011;29046;54.184;18.680;2023-04-16T01:17:51;11.25;;;6.95;;
43457;SDS011;29046;54.184;18.680;2023-04-16T01:20:18;10.98;;;6.60;;
43457;SDS011;29046;54.184;18.680;2023-04-16T01:22:46;8.80;;;6.97;;
43457;SDS011;29046;54.184;18.680;2023-04-16T01:25:13;9.43;;;6.72;;
43457;SDS011;29046;54.184;18.680;2023-04-16T01:27:41;9.20;;;6.72;;
43457;SDS011;29046;54.184;18.680;2023-04-16T01:30:09;10.02;;;6.68;;
43457;SDS011;29046;54.184;18.680;2023-04-16T01:32:37;8.82;;;6.47;;
43457;SDS011;29046;54.184;18.680;2023-04-16T01:35:04;10.05;;;7.05;;
43457;SDS011;29046;54.184;18.680;2023-04-16T01:37:32;9.73;;;6.30;;
43457;SDS011;29046;54.184;18.680;2023-04-16T01:39:59;9.57;;;6.78;;
43457;SDS011;29046;54.184;18.680;2023-04-16T01:42:27;9.85;;;6.55;;
43457;SDS011;29046;54.184;18.680;2023-04-16T01:44:54;9.73;;;6.38;;
43457;SDS011;29046;54.184;18.680;2023-04-16T01:47:22;8.88;;;6.70;;
43457;SDS011;29046;54.184;18.680;2023-04-16T01:49:49;10.35;;;7.43;;
43457;SDS011;29046;54.184;18.680;2023-04-16T01:52:17;9.93;;;7.05;;
43457;SDS011;29046;54.184;18.680;2023-04-16T01:54:44;10.18;;;7.30;;
43457;SDS011;29046;54.184;18.680;2023-04-16T01:57:12;11.63;;;6.95;;
43457;SDS011;29046;54.184;18.680;2023-04-16T01:59:39;10.70;;;6.80;;
43457;SDS011;29046;54.184;18.680;2023-04-16T02:02:10;13.60;;;8.02;;
43457;SDS011;29046;54.184;18.680;2023-04-16T02:04:39;12.15;;;8.20;;
43457;SDS011;29046;54.184;18.680;2023-04-16T02:07:07;12.52;;;8.10;;
43457;SDS011;29046;54.184;18.680;2023-04-16T02:09:38;10.57;;;8.02;;
43457;SDS011;29046;54.184;18.680;2023-04-16T02:12:06;11.90;;;8.07;;
43457;SDS011;29046;54.184;18.680;2023-04-16T02:14:36;11.73;;;8.57;;
43457;SDS011;29046;54.184;18.680;2023-04-16T02:17:04;11.30;;;8.00;;
43457;SDS011;29046;54.184;18.680;2023-04-16T02:19:31;11.48;;;8.43;;
43457;SDS011;29046;54.184;18.680;2023-04-16T02:21:59;13.55;;;8.82;;
43457;SDS011;29046;54.184;18.680;2023-04-16T02:24:29;11.30;;;8.52;;
43457;SDS011;29046;54.184;18.680;2023-04-16T02:26:57;13.73;;;9.38;;
43457;SDS011;29046;54.184;18.680;2023-04-16T02:29:24;13.50;;;8.35;;
43457;SDS011;29046;54.184;18.680;2023-04-16T02:31:52;13.18;;;8.05;;
43457;SDS011;29046;54.184;18.680;2023-04-16T02:34:19;13.43;;;8.25;;
43457;SDS011;29046;54.184;18.680;2023-04-16T02:36:47;11.63;;;8.30;;
43457;SDS011;29046;54.184;18.680;2023-04-16T02:39:14;14.57;;;8.77;;
43457;SDS011;29046;54.184;18.680;2023-04-16T02:41:42;13.07;;;8.40;;
43457;SDS011;29046;54.184;18.680;2023-04-16T02:44:09;12.55;;;8.60;;
43457;SDS011;29046;54.184;18.680;2023-04-16T02:46:37;12.07;;;8.13;;
43457;SDS011;29046;54.184;18.680;2023-04-16T02:49:04;13.32;;;8.18;;
43457;SDS011;29046;54.184;18.680;2023-04-16T02:51:32;11.57;;;8.57;;
43457;SDS011;29046;54.184;18.680;2023-04-16T02:53:59;12.38;;;8.15;;
43457;SDS011;29046;54.184;18.680;2023-04-16T02:56:28;11.35;;;7.95;;
43457;SDS011;29046;54.184;18.680;2023-04-16T02:58:56;12.05;;;8.35;;
43457;SDS011;29046;54.184;18.680;2023-04-16T03:01:23;11.77;;;8.77;;
43457;SDS011;29046;54.184;18.680;2023-04-16T03:03:51;16.15;;;8.95;;
43457;SDS011;29046;54.184;18.680;2023-04-16T03:06:18;13.00;;;8.63;;
43457;SDS011;29046;54.184;18.680;2023-04-16T03:08:46;10.90;;;7.68;;
43457;SDS011;29046;54.184;18.680;2023-04-16T03:11:13;13.38;;;9.23;;
43457;SDS011;29046;54.184;18.680;2023-04-16T03:13:41;13.00;;;9.02;;
43457;SDS011;29046;54.184;18.680;2023-04-16T03:16:09;10.43;;;8.32;;
43457;SDS011;29046;54.184;18.680;2023-04-16T03:18:36;12.68;;;8.45;;
43457;SDS011;29046;54.184;18.680;2023-04-16T03:21:04;14.50;;;8.02;;
43457;SDS011;29046;54.184;18.680;2023-04-16T03:23:32;13.10;;;8.75;;
43457;SDS011;29046;54.184;18.680;2023-04-16T03:26:00;13.23;;;8.75;;
43457;SDS011;29046;54.184;18.680;2023-04-16T03:28:27;12.48;;;8.43;;
43457;SDS011;29046;54.184;18.680;2023-04-16T03:30:54;15.30;;;8.90;;
43457;SDS011;29046;54.184;18.680;2023-04-16T03:33:22;14.20;;;8.65;;
43457;SDS011;29046;54.184;18.680;2023-04-16T03:35:56;18.88;;;9.23;;
43457;SDS011;29046;54.184;18.680;2023-04-16T03:38:23;13.32;;;9.25;;
43457;SDS011;29046;54.184;18.680;2023-04-16T03:40:52;18.38;;;9.85;;
43457;SDS011;29046;54.184;18.680;2023-04-16T03:43:19;13.20;;;9.48;;
43457;SDS011;29046;54.184;18.680;2023-04-16T03:45:47;14.43;;;9.35;;
43457;SDS011;29046;54.184;18.680;2023-04-16T03:48:14;16.67;;;9.75;;
43457;SDS011;29046;54.184;18.680;2023-04-16T03:50:45;13.45;;;9.18;;
43457;SDS011;29046;54.184;18.680;2023-04-16T03:53:13;15.35;;;9.75;;
43457;SDS011;29046;54.184;18.680;2023-04-16T03:55:41;13.45;;;9.82;;
43457;SDS011;29046;54.184;18.680;2023-04-16T03:58:08;14.63;;;9.60;;
43457;SDS011;29046;54.184;18.680;2023-04-16T04:00:36;13.52;;;8.95;;
43457;SDS011;29046;54.184;18.680;2023-04-16T04:03:08;15.32;;;10.57;;
43457;SDS011;29046;54.184;18.680;2023-04-16T04:05:39;14.18;;;10.02;;
43457;SDS011;29046;54.184;18.680;2023-04-16T04:08:07;14.40;;;10.57;;
43457;SDS011;29046;54.184;18.680;2023-04-16T04:10:35;15.77;;;9.88;;
43457;SDS011;29046;54.184;18.680;2023-04-16T04:13:03;15.23;;;10.50;;
43457;SDS011;29046;54.184;18.680;2023-04-16T04:15:31;18.50;;;11.05;;
43457;SDS011;29046;54.184;18.680;2023-04-16T04:17:58;14.52;;;11.30;;
43457;SDS011;29046;54.184;18.680;2023-04-16T04:20:26;16.30;;;11.68;;
43457;SDS011;29046;54.184;18.680;2023-04-16T04:22:53;22.30;;;11.05;;
43457;SDS011;29046;54.184;18.680;2023-04-16T04:25:21;19.98;;;11.50;;
43457;SDS011;29046;54.184;18.680;2023-04-16T04:27:48;15.68;;;10.82;;
43457;SDS011;29046;54.184;18.680;2023-04-16T04:30:16;16.15;;;11.02;;
43457;SDS011;29046;54.184;18.680;2023-04-16T04:32:44;18.38;;;11.75;;
43457;SDS011;29046;54.184;18.680;2023-04-16T04:35:11;15.82;;;11.50;;
43457;SDS011;29046;54.184;18.680;2023-04-16T04:37:39;16.52;;;11.20;;
43457;SDS011;29046;54.184;18.680;2023-04-16T04:40:06;17.95;;;10.82;;
43457;SDS011;29046;54.184;18.680;2023-04-16T04:42:35;17.85;;;11.23;;
43457;SDS011;29046;54.184;18.680;2023-04-16T04:45:03;19.08;;;11.55;;
43457;SDS011;29046;54.184;18.680;2023-04-16T04:47:31;17.95;;;11.13;;
43457;SDS011;29046;54.184;18.680;2023-04-16T04:49:58;15.85;;;10.50;;
43457;SDS011;29046;54.184;18.680;2023-04-16T04:52:26;14.82;;;10.85;;
43457;SDS011;29046;54.184;18.680;2023-04-16T04:54:54;16.70;;;11.82;;
43457;SDS011;29046;54.184;18.680;2023-04-16T04:57:21;15.63;;;11.50;;
43457;SDS011;29046;54.184;18.680;2023-04-16T04:59:49;14.68;;;10.82;;
43457;SDS011;29046;54.184;18.680;2023-04-16T05:02:16;16.92;;;10.13;;
43457;SDS011;29046;54.184;18.680;2023-04-16T05:04:44;17.70;;;11.52;;
43457;SDS011;29046;54.184;18.680;2023-04-16T05:07:11;17.33;;;11.30;;
43457;SDS011;29046;54.184;18.680;2023-04-16T05:09:39;16.90;;;11.38;;
43457;SDS011;29046;54.184;18.680;2023-04-16T05:12:06;17.58;;;11.68;;
43457;SDS011;29046;54.184;18.680;2023-04-16T05:14:34;16.60;;;10.90;;
43457;SDS011;29046;54.184;18.680;2023-04-16T05:17:01;18.00;;;11.23;;
43457;SDS011;29046;54.184;18.680;2023-04-16T05:19:29;16.25;;;11.02;;
43457;SDS011;29046;54.184;18.680;2023-04-16T05:21:57;15.73;;;10.88;;
43457;SDS011;29046;54.184;18.680;2023-04-16T05:24:24;16.77;;;10.75;;
43457;SDS011;29046;54.184;18.680;2023-04-16T05:26:51;15.57;;;10.93;;
43457;SDS011;29046;54.184;18.680;2023-04-16T05:29:19;14.23;;;11.02;;
43457;SDS011;29046;54.184;18.680;2023-04-16T05:31:47;16.42;;;10.98;;
43457;SDS011;29046;54.184;18.680;2023-04-16T05:34:14;15.95;;;11.07;;
43457;SDS011;29046;54.184;18.680;2023-04-16T05:36:42;17.83;;;10.20;;
43457;SDS011;29046;54.184;18.680;2023-04-16T05:39:09;15.82;;;10.43;;
43457;SDS011;29046;54.184;18.680;2023-04-16T05:41:37;13.60;;;10.20;;
43457;SDS011;29046;54.184;18.680;2023-04-16T05:44:05;14.13;;;10.27;;
43457;SDS011;29046;54.184;18.680;2023-04-16T05:46:32;20.48;;;10.70;;
43457;SDS011;29046;54.184;18.680;2023-04-16T05:49:00;15.55;;;10.55;;
43457;SDS011;29046;54.184;18.680;2023-04-16T05:51:27;16.98;;;10.65;;
43457;SDS011;29046;54.184;18.680;2023-04-16T05:53:55;13.45;;;10.18;;
43457;SDS011;29046;54.184;18.680;2023-04-16T05:56:22;16.40;;;10.13;;
43457;SDS011;29046;54.184;18.680;2023-04-16T05:58:51;16.17;;;9.90;;
43457;SDS011;29046;54.184;18.680;2023-04-16T06:01:18;14.95;;;10.30;;
43457;SDS011;29046;54.184;18.680;2023-04-16T06:03:45;17.13;;;10.77;;
43457;SDS011;29046;54.184;18.680;2023-04-16T06:06:13;13.68;;;9.80;;
43457;SDS011;29046;54.184;18.680;2023-04-16T06:08:41;16.35;;;10.18;;
43457;SDS011;29046;54.184;18.680;2023-04-16T06:11:08;16.35;;;10.43;;
43457;SDS011;29046;54.184;18.680;2023-04-16T06:13:36;15.10;;;10.43;;
43457;SDS011;29046;54.184;18.680;2023-04-16T06:16:04;15.52;;;10.07;;
43457;SDS011;29046;54.184;18.680;2023-04-16T06:18:31;15.40;;;10.48;;
43457;SDS011;29046;54.184;18.680;2023-04-16T06:20:59;15.75;;;10.55;;
43457;SDS011;29046;54.184;18.680;2023-04-16T06:23:27;17.17;;;10.77;;
43457;SDS011;29046;54.184;18.680;2023-04-16T06:25:54;17.38;;;10.10;;
43457;SDS011;29046;54.184;18.680;2023-04-16T06:28:22;15.70;;;10.63;;
43457;SDS011;29046;54.184;18.680;2023-04-16T06:30:49;12.32;;;9.30;;
43457;SDS011;29046;54.184;18.680;2023-04-16T06:33:17;13.63;;;9.05;;
43457;SDS011;29046;54.184;18.680;2023-04-16T06:35:44;16.20;;;8.60;;
43457;SDS011;29046;54.184;18.680;2023-04-16T06:38:13;13.48;;;8.88;;
43457;SDS011;29046;54.184;18.680;2023-04-16T06:40:40;12.52;;;8.90;;
43457;SDS011;29046;54.184;18.680;2023-04-16T06:43:08;10.95;;;8.20;;
43457;SDS011;29046;54.184;18.680;2023-04-16T06:45:35;14.07;;;9.27;;
43457;SDS011;29046;54.184;18.680;2023-04-16T06:48:03;12.82;;;7.78;;
43457;SDS011;29046;54.184;18.680;2023-04-16T06:50:31;13.23;;;8.40;;
43457;SDS011;29046;54.184;18.680;2023-04-16T06:52:58;9.85;;;8.02;;
43457;SDS011;29046;54.184;18.680;2023-04-16T06:55:26;11.05;;;8.05;;
43457;SDS011;29046;54.184;18.680;2023-04-16T06:57:53;11.60;;;8.43;;
43457;SDS011;29046;54.184;18.680;2023-04-16T07:00:21;12.25;;;8.75;;
43457;SDS011;29046;54.184;18.680;2023-04-16T07:02:48;12.43;;;7.63;;
43457;SDS011;29046;54.184;18.680;2023-04-16T07:05:16;10.38;;;7.60;;
43457;SDS011;29046;54.184;18.680;2023-04-16T07:07:44;12.60;;;8.40;;
43457;SDS011;29046;54.184;18.680;2023-04-16T07:10:11;13.07;;;7.57;;
43457;SDS011;29046;54.184;18.680;2023-04-16T07:12:39;11.98;;;7.97;;
43457;SDS011;29046;54.184;18.680;2023-04-16T07:15:06;11.77;;;6.85;;
43457;SDS011;29046;54.184;18.680;2023-04-16T07:17:34;10.25;;;7.53;;
43457;SDS011;29046;54.184;18.680;2023-04-16T07:20:02;11.30;;;7.90;;
43457;SDS011;29046;54.184;18.680;2023-04-16T07:22:29;9.88;;;7.25;;
43457;SDS011;29046;54.184;18.680;2023-04-16T07:24:57;9.93;;;7.20;;
43457;SDS011;29046;54.184;18.680;2023-04-16T07:27:24;11.35;;;7.35;;
43457;SDS011;29046;54.184;18.680;2023-04-16T07:29:52;12.13;;;8.20;;
43457;SDS011;29046;54.184;18.680;2023-04-16T07:32:21;11.35;;;7.13;;
43457;SDS011;29046;54.184;18.680;2023-04-16T07:34:48;13.25;;;8.32;;
43457;SDS011;29046;54.184;18.680;2023-04-16T07:37:16;10.55;;;6.47;;
43457;SDS011;29046;54.184;18.680;2023-04-16T07:39:44;7.88;;;5.00;;
43457;SDS011;29046;54.184;18.680;2023-04-16T07:42:11;7.47;;;5.47;;
43457;SDS011;29046;54.184;18.680;2023-04-16T07:44:39;8.02;;;5.80;;
43457;SDS011;29046;54.184;18.680;2023-04-16T07:47:06;8.18;;;6.10;;
43457;SDS011;29046;54.184;18.680;2023-04-16T07:49:34;7.65;;;5.40;;
43457;SDS011;29046;54.184;18.680;2023-04-16T07:52:02;10.65;;;6.57;;
43457;SDS011;29046;54.184;18.680;2023-04-16T07:54:29;7.45;;;4.75;;
43457;SDS011;29046;54.184;18.680;2023-04-16T07:56:57;8.13;;;4.97;;
43457;SDS011;29046;54.184;18.680;2023-04-16T07:59:24;6.28;;;4.40;;
43457;SDS011;29046;54.184;18.680;2023-04-16T08:01:52;7.57;;;5.22;;
43457;SDS011;29046;54.184;18.680;2023-04-16T08:04:20;9.32;;;4.88;;
43457;SDS011;29046;54.184;18.680;2023-04-16T08:06:52;5.57;;;3.72;;
43457;SDS011;29046;54.184;18.680;2023-04-16T08:09:21;7.00;;;4.03;;
43457;SDS011;29046;54.184;18.680;2023-04-16T08:11:49;7.00;;;4.35;;
43457;SDS011;29046;54.184;18.680;2023-04-16T08:14:16;5.28;;;3.72;;
43457;SDS011;29046;54.184;18.680;2023-04-16T08:16:44;6.80;;;4.70;;
43457;SDS011;29046;54.184;18.680;2023-04-16T08:19:11;6.85;;;4.82;;
43457;SDS011;29046;54.184;18.680;2023-04-16T08:21:39;9.38;;;5.40;;
43457;SDS011;29046;54.184;18.680;2023-04-16T08:24:07;7.35;;;5.10;;
43457;SDS011;29046;54.184;18.680;2023-04-16T08:26:34;5.43;;;4.25;;
43457;SDS011;29046;54.184;18.680;2023-04-16T08:29:02;4.90;;;4.00;;
43457;SDS011;29046;54.184;18.680;2023-04-16T08:31:29;6.15;;;4.53;;
43457;SDS011;29046;54.184;18.680;2023-04-16T08:33:57;4.75;;;3.53;;
43457;SDS011;29046;54.184;18.680;2023-04-16T08:36:25;4.85;;;3.45;;
43457;SDS011;29046;54.184;18.680;2023-04-16T08:38:53;5.72;;;3.78;;
43457;SDS011;29046;54.184;18.680;2023-04-16T08:41:20;4.93;;;3.70;;
43457;SDS011;29046;54.184;18.680;2023-04-16T08:43:49;4.15;;;2.95;;
43457;SDS011;29046;54.184;18.680;2023-04-16T08:46:18;3.78;;;2.85;;
43457;SDS011;29046;54.184;18.680;2023-04-16T08:48:47;5.32;;;3.33;;
43457;SDS011;29046;54.184;18.680;2023-04-16T08:51:16;5.30;;;3.20;;
43457;SDS011;29046;54.184;18.680;2023-04-16T08:53:51;6.50;;;3.47;;
43457;SDS011;29046;54.184;18.680;2023-04-16T08:56:19;5.10;;;3.63;;
43457;SDS011;29046;54.184;18.680;2023-04-16T08:58:47;5.22;;;3.72;;
43457;SDS011;29046;54.184;18.680;2023-04-16T09:01:17;4.70;;;3.25;;
43457;SDS011;29046;54.184;18.680;2023-04-16T09:03:48;4.43;;;3.63;;
43457;SDS011;29046;54.184;18.680;2023-04-16T09:06:16;4.85;;;3.55;;
43457;SDS011;29046;54.184;18.680;2023-04-16T09:08:44;6.85;;;4.88;;
43457;SDS011;29046;54.184;18.680;2023-04-16T09:11:17;10.77;;;6.85;;
43457;SDS011;29046;54.184;18.680;2023-04-16T09:13:45;5.75;;;4.10;;
43457;SDS011;29046;54.184;18.680;2023-04-16T09:16:13;5.88;;;4.07;;
43457;SDS011;29046;54.184;18.680;2023-04-16T09:18:41;4.35;;;3.50;;
43457;SDS011;29046;54.184;18.680;2023-04-16T09:21:09;4.97;;;3.58;;
43457;SDS011;29046;54.184;18.680;2023-04-16T09:23:36;6.63;;;4.28;;
43457;SDS011;29046;54.184;18.680;2023-04-16T09:26:05;5.05;;;3.72;;
43457;SDS011;29046;54.184;18.680;2023-04-16T09:28:40;5.28;;;3.83;;
43457;SDS011;29046;54.184;18.680;2023-04-16T09:31:14;4.78;;;3.55;;
43457;SDS011;29046;54.184;18.680;2023-04-16T09:33:42;4.55;;;3.15;;
43457;SDS011;29046;54.184;18.680;2023-04-16T09:36:10;4.45;;;3.17;;
43457;SDS011;29046;54.184;18.680;2023-04-16T09:38:44;6.32;;;3.35;;
43457;SDS011;29046;54.184;18.680;2023-04-16T09:41:13;3.28;;;2.47;;
43457;SDS011;29046;54.184;18.680;2023-04-16T09:43:56;3.35;;;2.38;;
43457;SDS011;29046;54.184;18.680;2023-04-16T09:46:28;4.20;;;2.78;;
43457;SDS011;29046;54.184;18.680;2023-04-16T09:48:56;5.80;;;3.13;;
43457;SDS011;29046;54.184;18.680;2023-04-16T09:51:24;3.47;;;2.50;;
43457;SDS011;29046;54.184;18.680;2023-04-16T09:53:51;3.45;;;2.38;;
43457;SDS011;29046;54.184;18.680;2023-04-16T09:56:22;4.57;;;2.50;;
43457;SDS011;29046;54.184;18.680;2023-04-16T09:59:00;2.92;;;2.17;;
43457;SDS011;29046;54.184;18.680;2023-04-16T10:01:29;2.95;;;2.40;;
43457;SDS011;29046;54.184;18.680;2023-04-16T10:03:58;3.88;;;2.78;;
43457;SDS011;29046;54.184;18.680;2023-04-16T10:06:26;3.83;;;2.80;;
43457;SDS011;29046;54.184;18.680;2023-04-16T10:08:55;6.50;;;4.00;;
43457;SDS011;29046;54.184;18.680;2023-04-16T10:11:23;6.28;;;4.10;;
43457;SDS011;29046;54.184;18.680;2023-04-16T10:13:51;7.88;;;4.85;;
43457;SDS011;29046;54.184;18.680;2023-04-16T10:16:18;8.50;;;5.45;;
43457;SDS011;29046;54.184;18.680;2023-04-16T10:18:48;12.35;;;6.20;;
43457;SDS011;29046;54.184;18.680;2023-04-16T10:21:16;6.55;;;4.43;;
43457;SDS011;29046;54.184;18.680;2023-04-16T10:23:43;16.67;;;7.93;;
43457;SDS011;29046;54.184;18.680;2023-04-16T10:26:12;10.60;;;6.25;;
43457;SDS011;29046;54.184;18.680;2023-04-16T10:28:39;6.05;;;4.25;;
43457;SDS011;29046;54.184;18.680;2023-04-16T10:31:07;8.85;;;4.40;;
43457;SDS011;29046;54.184;18.680;2023-04-16T10:33:36;5.40;;;3.53;;
43457;SDS011;29046;54.184;18.680;2023-04-16T10:36:06;4.45;;;3.08;;
43457;SDS011;29046;54.184;18.680;2023-04-16T10:38:36;6.57;;;4.00;;
43457;SDS011;29046;54.184;18.680;2023-04-16T10:41:15;3.97;;;2.92;;
43457;SDS011;29046;54.184;18.680;2023-04-16T10:43:43;5.05;;;3.70;;
43457;SDS011;29046;54.184;18.680;2023-04-16T10:48:48;5.75;;;3.45;;
43457;SDS011;29046;54.184;18.680;2023-04-16T10:51:51;4.35;;;3.40;;
43457;SDS011;29046;54.184;18.680;2023-04-16T10:56:40;4.53;;;3.35;;
43457;SDS011;29046;54.184;18.680;2023-04-16T10:59:07;5.18;;;3.80;;
43457;SDS011;29046;54.184;18.680;2023-04-16T11:04:26;5.72;;;3.95;;
43457;SDS011;29046;54.184;18.680;2023-04-16T11:07:13;5.30;;;3.78;;
43457;SDS011;29046;54.184;18.680;2023-04-16T11:09:57;5.78;;;3.72;;
43457;SDS011;29046;54.184;18.680;2023-04-16T11:12:41;6.30;;;4.00;;
43457;SDS011;29046;54.184;18.680;2023-04-16T11:15:11;6.75;;;3.80;;
43457;SDS011;29046;54.184;18.680;2023-04-16T11:17:43;4.55;;;3.75;;
43457;SDS011;29046;54.184;18.680;2023-04-16T11:22:50;4.53;;;3.55;;
43457;SDS011;29046;54.184;18.680;2023-04-16T11:25:24;5.50;;;3.78;;
43457;SDS011;29046;54.184;18.680;2023-04-16T11:27:52;4.10;;;2.85;;
43457;SDS011;29046;54.184;18.680;2023-04-16T11:30:27;4.20;;;2.95;;
43457;SDS011;29046;54.184;18.680;2023-04-16T11:32:56;5.30;;;3.30;;
43457;SDS011;29046;54.184;18.680;2023-04-16T11:35:23;5.35;;;2.88;;
43457;SDS011;29046;54.184;18.680;2023-04-16T11:37:54;3.65;;;2.63;;
43457;SDS011;29046;54.184;18.680;2023-04-16T11:40:22;4.57;;;2.95;;
43457;SDS011;29046;54.184;18.680;2023-04-16T11:42:50;3.92;;;2.80;;
43457;SDS011;29046;54.184;18.680;2023-04-16T11:45:17;4.65;;;2.75;;
43457;SDS011;29046;54.184;18.680;2023-04-16T11:47:48;5.65;;;2.72;;
43457;SDS011;29046;54.184;18.680;2023-04-16T11:50:21;4.90;;;3.35;;
43457;SDS011;29046;54.184;18.680;2023-04-16T11:52:53;3.92;;;2.90;;
43457;SDS011;29046;54.184;18.680;2023-04-16T11:55:20;3.60;;;2.25;;
43457;SDS011;29046;54.184;18.680;2023-04-16T11:57:49;5.05;;;3.40;;
43457;SDS011;29046;54.184;18.680;2023-04-16T12:00:18;3.90;;;2.88;;
43457;SDS011;29046;54.184;18.680;2023-04-16T12:02:51;3.50;;;2.78;;
43457;SDS011;29046;54.184;18.680;2023-04-16T12:07:56;4.68;;;3.20;;
43457;SDS011;29046;54.184;18.680;2023-04-16T12:10:24;5.68;;;3.13;;
43457;SDS011;29046;54.184;18.680;2023-04-16T12:12:52;3.53;;;2.55;;
43457;SDS011;29046;54.184;18.680;2023-04-16T12:15:20;5.80;;;3.17;;
43457;SDS011;29046;54.184;18.680;2023-04-16T12:17:47;4.95;;;3.33;;
43457;SDS011;29046;54.184;18.680;2023-04-16T12:20:15;4.97;;;3.10;;
43457;SDS011;29046;54.184;18.680;2023-04-16T12:22:44;3.83;;;2.50;;
43457;SDS011;29046;54.184;18.680;2023-04-16T12:25:14;5.47;;;3.55;;
43457;SDS011;29046;54.184;18.680;2023-04-16T12:27:48;3.50;;;2.22;;
43457;SDS011;29046;54.184;18.680;2023-04-16T12:30:20;3.25;;;2.80;;
43457;SDS011;29046;54.184;18.680;2023-04-16T12:32:49;7.18;;;4.15;;
43457;SDS011;29046;54.184;18.680;2023-04-16T12:35:30;5.68;;;3.47;;
43457;SDS011;29046;54.184;18.680;2023-04-16T12:37:58;5.90;;;3.35;;
43457;SDS011;29046;54.184;18.680;2023-04-16T12:40:26;6.60;;;3.50;;
43457;SDS011;29046;54.184;18.680;2023-04-16T12:42:54;4.93;;;3.25;;
43457;SDS011;29046;54.184;18.680;2023-04-16T12:45:22;3.90;;;2.97;;
43457;SDS011;29046;54.184;18.680;2023-04-16T12:47:49;7.22;;;4.10;;
43457;SDS011;29046;54.184;18.680;2023-04-16T12:50:17;5.45;;;3.17;;
43457;SDS011;29046;54.184;18.680;2023-04-16T12:52:44;107.63;;;35.97;;
43457;SDS011;29046;54.184;18.680;2023-04-16T12:55:12;11.25;;;8.18;;
43457;SDS011;29046;54.184;18.680;2023-04-16T12:57:39;5.90;;;3.20;;
43457;SDS011;29046;54.184;18.680;2023-04-16T13:00:08;18.38;;;13.18;;
43457;SDS011;29046;54.184;18.680;2023-04-16T13:02:36;24.85;;;12.95;;
43457;SDS011;29046;54.184;18.680;2023-04-16T13:05:04;21.58;;;12.00;;
43457;SDS011;29046;54.184;18.680;2023-04-16T13:07:32;5.68;;;3.83;;
43457;SDS011;29046;54.184;18.680;2023-04-16T13:09:59;24.85;;;9.10;;
43457;SDS011;29046;54.184;18.680;2023-04-16T13:12:27;18.33;;;7.63;;
43457;SDS011;29046;54.184;18.680;2023-04-16T13:14:54;9.18;;;3.85;;
43457;SDS011;29046;54.184;18.680;2023-04-16T13:17:22;7.00;;;4.55;;
43457;SDS011;29046;54.184;18.680;2023-04-16T13:19:49;4.70;;;3.28;;
43457;SDS011;29046;54.184;18.680;2023-04-16T13:22:17;10.93;;;5.82;;
43457;SDS011;29046;54.184;18.680;2023-04-16T13:24:44;6.43;;;4.20;;
43457;SDS011;29046;54.184;18.680;2023-04-16T13:27:12;10.80;;;5.75;;
43457;SDS011;29046;54.184;18.680;2023-04-16T13:29:41;9.98;;;4.68;;
43457;SDS011;29046;54.184;18.680;2023-04-16T13:32:09;13.27;;;6.97;;
43457;SDS011;29046;54.184;18.680;2023-04-16T13:34:38;6.05;;;3.92;;
43457;SDS011;29046;54.184;18.680;2023-04-16T13:37:06;5.00;;;3.58;;
43457;SDS011;29046;54.184;18.680;2023-04-16T13:39:33;17.55;;;6.15;;
43457;SDS011;29046;54.184;18.680;2023-04-16T13:42:01;13.70;;;5.72;;
43457;SDS011;29046;54.184;18.680;2023-04-16T13:44:29;13.93;;;5.97;;
43457;SDS011;29046;54.184;18.680;2023-04-16T13:46:56;6.45;;;4.07;;
43457;SDS011;29046;54.184;18.680;2023-04-16T13:49:25;7.22;;;3.85;;
43457;SDS011;29046;54.184;18.680;2023-04-16T13:51:52;4.70;;;3.15;;
43457;SDS011;29046;54.184;18.680;2023-04-16T13:54:20;13.93;;;6.03;;
43457;SDS011;29046;54.184;18.680;2023-04-16T13:56:48;16.95;;;6.88;;
43457;SDS011;29046;54.184;18.680;2023-04-16T13:59:16;26.48;;;12.02;;
43457;SDS011;29046;54.184;18.680;2023-04-16T14:01:44;10.98;;;5.65;;
43457;SDS011;29046;54.184;18.680;2023-04-16T14:04:11;29.13;;;14.57;;
43457;SDS011;29046;54.184;18.680;2023-04-16T14:06:39;11.63;;;6.47;;
43457;SDS011;29046;54.184;18.680;2023-04-16T14:09:06;21.10;;;10.32;;
43457;SDS011;29046;54.184;18.680;2023-04-16T14:11:36;20.77;;;8.88;;
43457;SDS011;29046;54.184;18.680;2023-04-16T14:14:03;10.57;;;6.15;;
43457;SDS011;29046;54.184;18.680;2023-04-16T14:16:31;9.55;;;5.38;;
43457;SDS011;29046;54.184;18.680;2023-04-16T14:18:59;9.25;;;5.50;;
43457;SDS011;29046;54.184;18.680;2023-04-16T14:21:26;15.07;;;7.90;;
43457;SDS011;29046;54.184;18.680;2023-04-16T14:23:54;24.58;;;11.90;;
43457;SDS011;29046;54.184;18.680;2023-04-16T14:26:21;17.92;;;7.10;;
43457;SDS011;29046;54.184;18.680;2023-04-16T14:28:49;14.70;;;6.32;;
43457;SDS011;29046;54.184;18.680;2023-04-16T14:31:17;7.28;;;4.45;;
43457;SDS011;29046;54.184;18.680;2023-04-16T14:33:45;8.27;;;5.35;;
43457;SDS011;29046;54.184;18.680;2023-04-16T14:36:13;7.25;;;3.97;;
43457;SDS011;29046;54.184;18.680;2023-04-16T14:38:41;10.25;;;4.32;;
43457;SDS011;29046;54.184;18.680;2023-04-16T14:41:08;7.07;;;4.07;;
43457;SDS011;29046;54.184;18.680;2023-04-16T14:43:38;13.70;;;6.20;;
43457;SDS011;29046;54.184;18.680;2023-04-16T14:46:07;6.07;;;3.95;;